Time;durP1;ratioP1;P1;durP2;ratioP2;P2;SDS_P1;SDS_P2;PMS_P1;PMS_P2;Temp;Humidity;BMP_temperature;BMP_pressure;BME280_temperature;BME280_humidity;BME280_pressure;Samples;Min_cycle;Max_cycle;Signal;HPM_P1;HPM_P2
2022/10/04 00:03:16;;;;;;;19.30;8.88;;;;;;;11.37;91.15;101951.44;5110665;27;20372;-57
2022/10/04 00:05:48;;;;;;;26.38;9.98;;;;;;;11.31;91.92;101946.63;5110845;28;20042;-57
2022/10/04 00:08:26;;;;;;;21.88;9.98;;;;;;;11.34;91.63;101952.50;5110926;28;20055;-58
2022/10/04 00:11:17;;;;;;;25.48;9.70;;;;;;;11.24;91.59;101935.69;5111036;28;20044;-57
2022/10/04 00:13:49;;;;;;;26.80;9.18;;;;;;;11.32;91.70;101943.00;5109044;28;20404;-58
2022/10/04 00:16:23;;;;;;;22.05;9.57;;;;;;;11.27;91.53;101935.41;5110741;28;20131;-57
2022/10/04 00:19:03;;;;;;;23.40;10.00;;;;;;;11.39;90.98;101936.19;5110308;28;20460;-57
2022/10/04 00:24:30;;;;;;;27.67;10.07;;;;;;;11.40;90.43;101929.88;5110799;27;20376;-57
2022/10/04 00:27:21;;;;;;;23.15;10.02;;;;;;;11.34;90.75;101933.91;5111247;28;20044;-58
2022/10/04 00:38:13;;;;;;;31.40;11.05;;;;;;;11.27;90.61;101916.81;5110986;27;20347;-57
2022/10/04 00:40:49;;;;;;;24.27;11.32;;;;;;;11.27;90.74;101919.47;5110536;28;20028;-57
2022/10/04 00:43:40;;;;;;;23.98;10.25;;;;;;;11.20;90.60;101914.81;5111094;28;20050;-57
2022/10/04 00:46:14;;;;;;;28.00;11.47;;;;;;;11.29;90.62;101917.50;5110438;28;20086;-57
2022/10/04 00:48:52;;;;;;;29.30;10.50;;;;;;;11.31;90.57;101922.69;5110913;28;20044;-57
2022/10/04 00:51:43;;;;;;;37.08;11.02;;;;;;;11.30;90.41;101915.72;4986188;28;20971;-58
2022/10/04 00:54:17;;;;;;;23.00;9.93;;;;;;;11.16;90.67;101914.22;5110340;28;20067;-58
2022/10/04 00:56:51;;;;;;;27.23;10.98;;;;;;;11.21;90.30;101916.50;5110834;28;20393;-59
2022/10/04 00:59:33;;;;;;;24.73;10.00;;;;;;;11.24;90.10;101917.09;5110499;28;20489;-59
2022/10/04 01:02:21;;;;;;;20.80;10.05;;;;;;;11.13;90.49;101915.34;5090256;28;20040;-59
2022/10/04 01:05:00;;;;;;;22.92;10.25;;;;;;;11.08;90.66;101919.34;5089488;28;20048;-58
2022/10/04 01:07:48;;;;;;;26.38;10.30;;;;;;;11.11;90.18;101919.94;5090284;28;20513;-58
2022/10/04 01:10:25;;;;;;;28.98;10.07;;;;;;;11.11;90.28;101925.25;5088889;28;20044;-58
2022/10/04 01:13:15;;;;;;;27.23;9.52;;;;;;;11.07;90.49;101915.84;5090069;28;20433;-58
2022/10/04 01:16:18;;;;;;;22.25;9.85;;;;;;;11.14;90.48;101914.34;5089351;28;20048;-59
2022/10/04 01:18:46;;;;;;;24.40;9.57;;;;;;;11.02;90.21;101910.06;5089704;28;20083;-59
2022/10/04 01:26:41;;;;;;;23.60;9.60;;;;;;;10.98;90.85;101915.78;5110756;27;20871;-58
2022/10/04 01:29:17;;;;;;;25.95;9.65;;;;;;;11.03;90.66;101922.38;5111243;28;20075;-58
2022/10/04 01:31:46;;;;;;;28.67;10.00;;;;;;;11.06;90.57;101908.00;5110729;28;20059;-58
2022/10/04 01:34:16;;;;;;;22.35;9.35;;;;;;;11.01;90.88;101905.75;5113309;28;20478;-58
2022/10/04 01:36:46;;;;;;;22.45;9.25;;;;;;;10.89;91.28;101899.63;5131424;27;20074;-58
2022/10/04 01:39:14;;;;;;;24.17;9.75;;;;;;;10.95;91.09;101892.94;5130184;27;20043;-57
2022/10/04 01:44:43;;;;;;;18.08;8.95;;;;;;;10.95;90.79;101885.00;5110720;27;20889;-58
2022/10/04 01:47:15;;;;;;;20.17;8.95;;;;;;;11.02;90.92;101875.53;5110686;28;20028;-57
2022/10/04 01:49:45;;;;;;;19.75;9.07;;;;;;;10.99;90.74;101883.78;5110841;28;20044;-57
2022/10/04 01:52:26;;;;;;;20.50;8.88;;;;;;;10.82;91.18;101884.34;4987532;28;20071;-58
2022/10/04 01:55:05;;;;;;;25.83;9.45;;;;;;;10.98;90.80;101882.09;5110898;28;20046;-58
2022/10/04 01:57:37;;;;;;;33.05;10.27;;;;;;;10.96;90.62;101889.34;5110921;28;20086;-57
2022/10/04 02:00:08;;;;;;;23.15;9.25;;;;;;;10.89;90.87;101889.00;5110764;28;20048;-57
2022/10/04 02:02:43;;;;;;;20.35;9.13;;;;;;;10.90;91.03;101893.34;5110785;28;20043;-58
2022/10/04 02:05:14;;;;;;;27.63;9.13;;;;;;;10.90;90.59;101881.91;5110233;28;20053;-59
2022/10/04 02:07:43;;;;;;;26.35;9.18;;;;;;;10.84;90.99;101877.94;5110602;28;20164;-58
2022/10/04 02:10:17;;;;;;;28.52;9.57;;;;;;;10.80;91.29;101868.53;5110655;28;20069;-57
2022/10/04 02:12:48;;;;;;;25.88;9.27;;;;;;;10.73;91.54;101876.19;5110238;28;20067;-58
2022/10/04 02:15:17;;;;;;;23.70;9.53;;;;;;;10.82;91.54;101879.03;5108945;28;20126;-57
2022/10/04 02:17:46;;;;;;;19.75;9.40;;;;;;;10.81;91.54;101866.75;5110476;28;20048;-57
2022/10/04 02:20:17;;;;;;;23.20;9.40;;;;;;;10.75;92.13;101876.91;5110554;28;20040;-57
2022/10/04 02:22:48;;;;;;;22.88;9.75;;;;;;;10.70;92.11;101881.75;5110557;28;20040;-58
2022/10/04 02:25:18;;;;;;;17.65;9.07;;;;;;;10.68;92.53;101872.22;5110348;28;20048;-57
2022/10/04 02:27:46;;;;;;;28.27;8.95;;;;;;;10.67;92.32;101860.75;5110466;28;20097;-57
2022/10/04 02:30:13;;;;;;;28.85;9.35;;;;;;;10.67;92.34;101863.41;5109651;28;20043;-57
2022/10/04 02:32:58;;;;;;;22.95;9.30;;;;;;;10.64;92.43;101858.38;5110516;28;20520;-57
2022/10/04 02:35:30;;;;;;;24.67;9.57;;;;;;;10.79;92.17;101852.72;5109743;28;20044;-58
2022/10/04 02:38:06;;;;;;;22.38;9.88;;;;;;;10.73;92.38;101846.13;5110272;28;20048;-58
2022/10/04 02:40:43;;;;;;;24.75;9.50;;;;;;;10.70;92.82;101841.09;5109258;28;20043;-57
2022/10/04 02:43:16;;;;;;;23.33;9.13;;;;;;;10.73;92.44;101833.72;5109649;28;20051;-57
2022/10/04 02:45:50;;;;;;;20.05;9.02;;;;;;;10.78;92.52;101830.66;5109764;28;20058;-58
2022/10/04 02:48:32;;;;;;;24.33;9.25;;;;;;;10.72;92.59;101828.53;5109890;28;20043;-58
2022/10/04 02:51:13;;;;;;;22.42;9.52;;;;;;;10.69;93.07;101829.63;5016391;28;20603;-60
2022/10/04 02:53:56;;;;;;;23.33;9.32;;;;;;;10.73;92.50;101823.09;5109371;28;20062;-57
2022/10/04 02:56:25;;;;;;;22.70;9.10;;;;;;;10.76;92.95;101820.19;5095771;28;20397;-57
2022/10/04 02:58:58;;;;;;;25.67;9.25;;;;;;;10.76;92.81;101814.03;5095971;28;20097;-58
2022/10/04 03:01:36;;;;;;;20.95;8.88;;;;;;;10.67;93.07;101823.59;5095632;28;20040;-59
2022/10/04 03:04:03;;;;;;;24.38;9.43;;;;;;;10.49;93.86;101815.34;5095168;28;20121;-58
2022/10/04 03:06:32;;;;;;;24.58;9.15;;;;;;;10.49;93.96;101817.19;5095618;28;20040;-58
2022/10/04 03:09:04;;;;;;;22.27;9.40;;;;;;;10.61;93.75;101816.16;5095908;28;20044;-59
2022/10/04 03:11:36;;;;;;;22.35;9.02;;;;;;;10.54;93.75;101815.81;5096347;28;20044;-59
2022/10/04 03:14:12;;;;;;;26.00;9.65;;;;;;;10.69;93.16;101815.53;5095722;28;20043;-58
2022/10/04 03:16:43;;;;;;;29.25;8.70;;;;;;;10.76;92.54;101816.69;5094262;28;20047;-58
2022/10/04 03:19:13;;;;;;;24.53;9.13;;;;;;;10.77;92.52;101815.72;5095744;28;20398;-57
2022/10/04 03:21:42;;;;;;;22.77;9.98;;;;;;;10.83;92.48;101817.03;5094447;28;20048;-57
2022/10/04 03:24:17;;;;;;;19.90;9.15;;;;;;;10.71;92.27;101813.56;5077804;28;20044;-58
2022/10/04 03:26:47;;;;;;;17.83;8.68;;;;;;;10.72;92.49;101809.97;5095155;28;20405;-57
2022/10/04 03:29:16;;;;;;;22.42;9.20;;;;;;;10.74;92.39;101802.72;5095643;28;20113;-57
2022/10/04 03:31:46;;;;;;;24.80;9.02;;;;;;;10.76;92.37;101793.63;5095100;28;20044;-58
2022/10/04 03:34:18;;;;;;;23.90;8.52;;;;;;;10.64;92.27;101780.56;5094346;28;20040;-57
2022/10/04 03:36:46;;;;;;;;;;;;;;;10.52;92.82;101780.63;5091688;28;20044;-57
2022/10/04 03:39:24;;;;;;;20.63;9.25;;;;;;;10.52;93.20;101780.63;5095058;28;19920;-57
2022/10/04 03:41:52;;;;;;;21.95;9.27;;;;;;;10.43;93.00;101784.06;5095278;28;20045;-57
2022/10/04 03:44:20;;;;;;;24.60;9.32;;;;;;;10.44;93.25;101774.28;5094663;28;20048;-57
2022/10/04 03:46:47;;;;;;;19.55;8.85;;;;;;;10.41;93.78;101790.47;5095152;28;20136;-58
2022/10/04 03:49:22;;;;;;;19.75;8.52;;;;;;;10.19;94.58;101787.72;5094923;28;20090;-57
2022/10/04 03:51:49;;;;;;;25.20;9.30;;;;;;;10.24;94.35;101787.38;4966290;28;20048;-58
2022/10/04 03:54:22;;;;;;;19.25;9.65;;;;;;;10.32;93.89;101792.91;5095015;28;20543;-58
2022/10/04 03:56:51;;;;;;;17.55;8.65;;;;;;;10.26;94.33;101787.22;5095250;28;20481;-62
2022/10/04 03:59:18;;;;;;;23.48;9.65;;;;;;;10.42;93.71;101792.13;5094853;28;20077;-59
2022/10/04 04:01:54;;;;;;;23.55;11.10;;;;;;;10.37;93.71;101779.25;5094585;28;20064;-58
2022/10/04 04:04:30;;;;;;;23.20;10.05;;;;;;;10.31;94.16;101777.94;5094214;28;20044;-59
2022/10/04 04:07:20;;;;;;;23.92;9.77;;;;;;;10.31;93.61;101775.28;5093671;28;20040;-59
2022/10/04 04:10:05;;;;;;;25.13;9.23;;;;;;;10.24;94.44;101775.88;5093758;28;20439;-58
2022/10/04 04:12:39;;;;;;;20.38;9.25;;;;;;;10.28;93.88;101786.13;5094667;28;20115;-59
2022/10/04 04:15:10;;;;;;;29.98;9.63;;;;;;;10.25;94.05;101786.38;5094383;28;20036;-59
2022/10/04 04:17:41;;;;;;;21.25;9.00;;;;;;;10.31;93.56;101785.88;5094103;28;20082;-58
2022/10/04 04:20:31;;;;;;;20.67;9.57;;;;;;;10.24;93.22;101784.72;5094527;28;20048;-59
2022/10/04 04:23:03;;;;;;;23.15;9.00;;;;;;;10.23;93.84;101790.97;5094180;28;20544;-58
2022/10/04 04:25:33;;;;;;;17.90;8.38;;;;;;;10.31;93.39;101780.59;5094469;28;20055;-58
2022/10/04 04:28:12;;;;;;;21.85;8.65;;;;;;;10.29;93.32;101782.50;5094256;28;20463;-58
2022/10/04 04:30:45;;;;;;;25.95;8.85;;;;;;;10.33;93.22;101773.38;5093597;28;20040;-59
2022/10/04 04:33:25;;;;;;;18.85;8.95;;;;;;;10.26;94.00;101773.94;5095863;28;20050;-58
2022/10/04 04:36:01;;;;;;;21.17;8.85;;;;;;;10.29;93.73;101766.59;5095994;28;20059;-58
2022/10/04 04:38:28;;;;;;;17.65;9.00;;;;;;;10.17;94.61;101772.91;5096384;28;20116;-58
2022/10/04 04:40:56;;;;;;;19.98;8.85;;;;;;;10.12;94.19;101767.16;5094462;28;20145;-58
2022/10/04 04:43:26;;;;;;;20.17;8.88;;;;;;;10.27;93.78;101760.56;5093949;28;20052;-59
2022/10/04 04:45:58;;;;;;;20.27;8.75;;;;;;;10.21;93.49;101758.44;5092487;28;20050;-59
2022/10/04 04:48:44;;;;;;;19.40;8.38;;;;;;;10.11;93.90;101758.34;5094382;28;20052;-59
2022/10/04 04:51:18;;;;;;;20.02;8.98;;;;;;;10.13;93.94;101750.25;4966079;28;20529;-58
2022/10/04 04:53:46;;;;;;;28.02;9.15;;;;;;;10.23;93.60;101745.06;5093674;28;20583;-59
2022/10/04 04:56:18;;;;;;;20.77;9.27;;;;;;;10.22;93.37;101746.84;5093957;28;20089;-59
2022/10/04 04:58:48;;;;;;;19.63;8.52;;;;;;;10.25;93.08;101754.56;5092563;28;20127;-60
2022/10/04 05:01:24;;;;;;;22.02;8.43;;;;;;;10.26;92.92;101750.09;5093371;28;20048;-59
2022/10/04 05:06:43;;;;;;;18.25;8.95;;;;;;;10.16;93.31;101752.66;5110598;27;20387;-58
2022/10/04 05:09:29;;;;;;;23.40;9.07;;;;;;;10.13;93.19;101743.16;5110519;28;20044;-58
2022/10/04 05:12:06;;;;;;;21.35;8.73;;;;;;;10.16;92.91;101740.25;5110800;28;20055;-58
2022/10/04 05:14:37;;;;;;;22.15;9.55;;;;;;;10.07;92.99;101737.53;5110526;28;20047;-57
2022/10/04 05:17:04;;;;;;;20.85;8.70;;;;;;;9.95;93.35;101736.69;5108908;28;20383;-58
2022/10/04 05:19:36;;;;;;;22.17;9.15;;;;;;;10.10;93.32;101738.09;5110387;28;20055;-58
2022/10/04 05:22:09;;;;;;;21.70;9.90;;;;;;;9.94;93.53;101735.88;5110652;28;20493;-58
2022/10/04 05:24:41;;;;;;;24.80;9.32;;;;;;;9.85;93.82;101741.09;5109801;28;20172;-58
2022/10/04 05:27:15;;;;;;;21.88;9.40;;;;;;;9.89;93.89;101745.16;5110557;28;20043;-58
2022/10/04 05:30:00;;;;;;;19.25;8.80;;;;;;;9.93;94.13;101743.94;5110501;28;20048;-58
2022/10/04 05:32:44;;;;;;;27.92;9.45;;;;;;;9.99;93.85;101746.94;5110335;28;20051;-58
2022/10/04 05:35:16;;;;;;;23.73;9.23;;;;;;;9.87;94.32;101744.44;5108583;28;20050;-58
2022/10/04 05:38:23;;;;;;;22.77;10.05;;;;;;;9.85;94.53;101743.75;5106429;28;20039;-58
2022/10/04 05:41:14;;;;;;;16.70;8.63;;;;;;;9.74;94.36;101747.25;5109461;28;20082;-57
2022/10/04 05:43:48;;;;;;;17.15;8.85;;;;;;;9.69;94.80;101744.97;5125957;28;20409;-58
2022/10/04 05:48:57;;;;;;;22.30;9.88;;;;;;;9.55;95.33;101731.97;5070026;28;20389;-58
2022/10/04 05:51:27;;;;;;;25.55;9.07;;;;;;;9.66;95.12;101739.06;4948167;28;20657;-59
2022/10/04 05:53:58;;;;;;;17.25;8.95;;;;;;;9.70;94.59;101745.84;5069088;28;20059;-59
2022/10/04 05:56:51;;;;;;;24.05;9.07;;;;;;;9.76;94.57;101743.50;5069926;28;20068;-58
2022/10/04 05:59:29;;;;;;;22.58;9.10;;;;;;;9.69;94.18;101737.00;5068601;28;20124;-58
2022/10/04 06:02:17;;;;;;;21.52;9.15;;;;;;;9.77;94.08;101742.56;5068493;28;20135;-58
2022/10/04 06:05:08;;;;;;;21.75;9.50;;;;;;;9.82;93.53;101741.31;5069196;28;20053;-58
2022/10/04 06:10:48;;;;;;;19.98;9.60;;;;;;;9.68;94.10;101738.00;5063913;28;20890;-58
2022/10/04 06:13:51;;;;;;;24.85;9.60;;;;;;;9.87;93.42;101739.97;5046259;28;20092;-58
2022/10/04 06:16:42;;;;;;;26.05;11.25;;;;;;;9.76;93.08;101735.56;5045936;28;20048;-58
2022/10/04 06:19:36;;;;;;;18.07;9.37;;;;;;;9.73;93.73;101740.25;5048779;28;20112;-58
2022/10/04 06:22:15;;;;;;;21.13;10.25;;;;;;;9.90;93.32;101746.88;5036874;28;20296;-58
2022/10/04 06:24:49;;;;;;;17.65;9.98;;;;;;;9.76;93.53;101740.03;5053388;28;20045;-57
2022/10/04 06:27:26;;;;;;;22.45;9.52;;;;;;;9.88;93.05;101746.16;5053462;28;20052;-57
2022/10/04 06:30:01;;;;;;;19.67;10.07;;;;;;;9.93;92.46;101747.47;5050591;28;20079;-57
2022/10/04 06:35:35;;;;;;;23.38;10.30;;;;;;;9.76;93.03;101738.19;5093326;27;20484;-58
2022/10/04 06:38:23;;;;;;;22.80;9.98;;;;;;;9.90;92.24;101736.25;5070089;28;20047;-58
2022/10/04 06:44:12;;;;;;;23.85;10.52;;;;;;;9.82;92.77;101742.16;5104546;27;20403;-57
2022/10/04 06:47:09;;;;;;;21.63;10.43;;;;;;;9.81;92.86;101740.50;5106991;28;20048;-58
2022/10/04 06:50:15;;;;;;;19.48;9.75;;;;;;;9.89;92.26;101742.50;5094929;28;20036;-58
2022/10/04 06:53:22;;;;;;;22.67;10.93;;;;;;;9.96;92.09;101744.53;4971385;28;20036;-57
2022/10/04 06:56:06;;;;;;;30.25;11.30;;;;;;;10.07;91.31;101748.97;5085962;28;20040;-57
2022/10/04 06:58:58;;;;;;;24.75;10.23;;;;;;;10.02;90.87;101737.06;5106650;28;20468;-58
2022/10/04 07:01:29;;;;;;;22.75;10.30;;;;;;;10.01;91.48;101743.34;5107357;28;20516;-57
2022/10/04 07:04:20;;;;;;;26.65;10.15;;;;;;;10.09;90.88;101739.06;5100180;28;20089;-57
2022/10/04 07:07:38;;;;;;;23.08;10.90;;;;;;;10.25;90.16;101745.75;5102232;28;20397;-57
2022/10/04 07:10:01;;;;;;;23.30;10.60;;;;;;;10.29;90.11;101745.38;5103952;28;20044;-58
2022/10/04 07:12:32;;;;;;;25.02;11.85;;;;;;;10.25;90.24;101749.25;5103393;28;20412;-57
2022/10/04 07:15:03;;;;;;;25.77;11.38;;;;;;;10.36;89.66;101748.38;5097460;28;20054;-57
2022/10/04 07:17:38;;;;;;;27.48;10.52;;;;;;;10.34;89.13;101751.16;5105876;28;20059;-58
2022/10/04 07:20:19;;;;;;;21.30;10.48;;;;;;;10.37;89.01;101750.91;5095427;28;20046;-58
2022/10/04 07:22:55;;;;;;;22.80;10.95;;;;;;;10.44;89.41;101750.41;5106730;28;20059;-58
2022/10/04 07:25:29;;;;;;;32.58;10.23;;;;;;;10.65;88.07;101753.91;5104961;28;20126;-57
2022/10/04 07:31:02;;;;;;;27.30;11.43;;;;;;;10.75;88.87;101760.13;5103025;28;20040;-57
2022/10/04 07:33:33;;;;;;;27.02;10.85;;;;;;;10.70;88.13;101758.84;5098141;28;20135;-57
2022/10/04 07:36:11;;;;;;;23.00;11.82;;;;;;;10.78;87.76;101755.53;5102270;28;20036;-57
2022/10/04 07:38:48;;;;;;;23.58;10.82;;;;;;;10.80;87.87;101750.91;5106632;28;20105;-58
2022/10/04 07:41:36;;;;;;;24.75;10.95;;;;;;;10.83;87.97;101755.97;5099365;28;20120;-56
2022/10/04 07:44:11;;;;;;;28.67;11.93;;;;;;;10.73;87.55;101758.56;5082015;28;20454;-58
2022/10/04 07:49:20;;;;;;;30.35;10.90;;;;;;;10.90;87.74;101770.41;5098147;27;20413;-57
2022/10/04 07:52:27;;;;;;;25.52;11.55;;;;;;;10.91;87.87;101762.31;5040673;28;20049;-58
2022/10/04 07:55:20;;;;;;;22.13;11.20;;;;;;;10.90;87.13;101757.97;5095957;28;20129;-58
2022/10/04 07:58:26;;;;;;;24.75;11.20;;;;;;;10.91;87.28;101767.63;5083342;28;20554;-58
2022/10/04 08:01:15;;;;;;;26.15;12.07;;;;;;;11.09;87.17;101761.69;5089164;28;20388;-58
2022/10/04 08:04:08;;;;;;;24.77;10.93;;;;;;;11.03;86.87;101765.72;5087451;28;20046;-57
2022/10/04 08:06:45;;;;;;;26.00;11.73;;;;;;;11.07;86.40;101760.97;5096084;28;20040;-58
2022/10/04 08:09:41;;;;;;;23.35;11.23;;;;;;;11.23;86.87;101752.53;5087860;28;20497;-58
2022/10/04 08:12:19;;;;;;;22.92;11.10;;;;;;;11.18;86.47;101746.78;5077485;28;20766;-58
2022/10/04 08:15:11;;;;;;;25.35;10.77;;;;;;;11.17;86.26;101745.09;5105203;28;20073;-58
2022/10/04 08:18:18;;;;;;;24.45;11.30;;;;;;;11.27;86.23;101753.94;5074478;28;20485;-58
2022/10/04 08:20:54;;;;;;;23.95;11.82;;;;;;;11.23;85.70;101749.88;5087678;28;20048;-57
2022/10/04 08:23:50;;;;;;;23.52;11.25;;;;;;;11.38;85.78;101745.88;5082783;28;20048;-58
2022/10/04 08:26:33;;;;;;;29.45;11.85;;;;;;;11.29;84.82;101741.38;5102462;28;20674;-57
2022/10/04 08:29:43;;;;;;;27.45;11.13;;;;;;;11.52;84.25;101740.19;5083645;28;20175;-58
2022/10/04 08:32:49;;;;;;;31.02;12.68;;;;;;;11.57;84.20;101739.78;5081200;28;20044;-58
2022/10/04 08:35:35;;;;;;;29.58;10.68;;;;;;;11.64;83.48;101734.75;5097664;28;20052;-58
2022/10/04 08:38:21;;;;;;;22.02;11.27;;;;;;;11.65;83.82;101741.75;5093774;28;20041;-57
2022/10/04 08:44:12;;;;;;;25.50;11.63;;;;;;;11.94;82.28;101741.84;5113838;27;20398;-59
2022/10/04 08:47:20;;;;;;;24.60;11.48;;;;;;;12.11;82.42;101745.59;5087553;28;20055;-57
2022/10/04 08:50:26;;;;;;;26.60;12.23;;;;;;;12.28;82.06;101742.25;5109211;28;20090;-58
2022/10/04 08:53:24;;;;;;;23.40;10.65;;;;;;;12.48;81.34;101745.75;5087418;27;20501;-58
2022/10/04 08:56:08;;;;;;;23.27;10.85;;;;;;;12.45;81.15;101740.69;5096832;28;20051;-58
2022/10/04 08:59:07;;;;;;;23.45;11.82;;;;;;;12.59;80.67;101746.59;5109225;28;20125;-58
2022/10/04 09:02:07;;;;;;;24.35;12.07;;;;;;;12.74;79.91;101749.63;5103874;28;20474;-58
2022/10/04 09:04:50;;;;;;;22.75;11.65;;;;;;;13.50;76.00;101740.66;5104628;28;20044;-58
2022/10/04 09:07:57;;;;;;;22.08;11.43;;;;;;;14.25;73.89;101748.44;5112496;28;20037;-58
2022/10/04 09:10:55;;;;;;;22.15;10.52;;;;;;;15.86;66.52;101739.81;5112590;27;20383;-58
2022/10/04 09:13:58;;;;;;;23.98;10.43;;;;;;;17.03;61.61;101743.09;5120290;28;20130;-58
2022/10/04 09:16:44;;;;;;;18.48;9.85;;;;;;;18.18;57.10;101745.19;5095723;28;20049;-58
2022/10/04 09:19:30;;;;;;;18.90;9.48;;;;;;;18.76;55.65;101742.81;5096661;28;20050;-58
2022/10/04 09:30:19;;;;;;;20.55;10.50;;;;;;;20.63;47.38;101739.59;5099904;27;20370;-58
2022/10/04 09:33:26;;;;;;;21.27;9.38;;;;;;;21.49;46.39;101735.72;5084654;28;20072;-58
2022/10/04 09:36:21;;;;;;;21.40;9.48;;;;;;;20.99;47.40;101737.72;5081265;28;20410;-58
2022/10/04 09:39:17;;;;;;;33.40;10.38;;;;;;;22.05;44.05;101729.19;5085314;28;20991;-59
2022/10/04 09:47:41;;;;;;;22.02;9.48;;;;;;;23.81;41.49;101735.66;5071201;28;20866;-57
2022/10/04 09:50:36;;;;;;;17.58;9.25;;;;;;;24.11;39.88;101732.34;5055770;28;20116;-58
2022/10/04 09:53:27;;;;;;;19.88;9.05;;;;;;;24.64;38.07;101733.78;5016067;28;20291;-59
2022/10/04 09:56:30;;;;;;;20.05;9.77;;;;;;;24.99;37.87;101733.19;5054763;28;20125;-58
2022/10/04 09:59:26;;;;;;;22.67;9.77;;;;;;;25.85;36.22;101731.25;5051218;28;20049;-58
2022/10/04 10:02:33;;;;;;;18.05;9.10;;;;;;;25.66;36.43;101731.31;5048533;28;20558;-59
2022/10/04 10:05:35;;;;;;;20.75;9.93;;;;;;;25.94;35.94;101723.59;5049211;28;20136;-59
2022/10/04 10:08:41;;;;;;;20.42;9.45;;;;;;;27.22;33.66;101725.72;5059874;28;20128;-60
2022/10/04 10:15:11;;;;;;;24.13;9.45;;;;;;;27.55;32.37;101731.28;5044011;28;20103;-58
2022/10/04 10:17:50;;;;;;;17.48;9.10;;;;;;;27.98;32.06;101739.16;5048128;28;20068;-59
2022/10/04 10:20:42;;;;;;;20.88;9.20;;;;;;;27.22;31.97;101737.44;5044441;28;20091;-59
2022/10/04 10:23:49;;;;;;;21.27;9.43;;;;;;;27.83;32.18;101724.16;5048281;28;20042;-58
2022/10/04 10:26:44;;;;;;;25.85;9.27;;;;;;;27.88;31.83;101721.50;5046222;28;20035;-58
2022/10/04 10:29:51;;;;;;;20.33;8.68;;;;;;;28.56;31.29;101718.84;5043801;28;20430;-58
2022/10/04 10:35:36;;;;;;;29.48;9.82;;;;;;;28.81;30.34;101712.88;5102363;27;20379;-58
2022/10/04 10:38:43;;;;;;;23.10;9.32;;;;;;;28.99;29.75;101719.94;5109757;28;20132;-58
2022/10/04 10:41:43;;;;;;;20.60;8.75;;;;;;;29.05;29.48;101712.63;5105699;28;20052;-59
2022/10/04 10:44:41;;;;;;;21.02;9.50;;;;;;;28.32;30.84;101708.09;5109595;28;20071;-58
2022/10/04 10:47:36;;;;;;;22.67;8.98;;;;;;;28.46;30.35;101707.72;5105931;28;20039;-59
2022/10/04 10:53:28;;;;;;;23.95;8.50;;;;;;;28.02;29.96;101700.25;4974302;28;20333;-59
2022/10/04 10:56:22;;;;;;;19.52;7.85;;;;;;;28.61;29.65;101696.22;5087515;28;20044;-59
2022/10/04 10:59:31;;;;;;;21.42;7.70;;;;;;;28.98;29.63;101699.19;5089245;28;20037;-60
2022/10/04 11:02:11;;;;;;;18.92;7.47;;;;;;;29.13;29.46;101695.78;5064131;28;20041;-60
2022/10/04 11:05:02;;;;;;;22.10;8.32;;;;;;;28.35;29.71;101684.94;5069160;28;20052;-59
2022/10/04 11:13:10;;;;;;;19.77;8.48;;;;;;;28.11;31.38;101685.13;5105939;27;20384;-58
2022/10/04 11:15:49;;;;;;;20.73;8.50;;;;;;;27.68;32.18;101683.00;5110304;28;20083;-58
2022/10/04 11:18:55;;;;;;;19.40;8.13;;;;;;;26.91;32.37;101681.53;5105492;28;20519;-59
2022/10/04 11:22:06;;;;;;;18.55;7.95;;;;;;;26.21;33.88;101670.47;5109273;28;20123;-58
2022/10/04 11:25:12;;;;;;;17.23;7.03;;;;;;;26.21;34.20;101675.06;5107127;28;20044;-60
2022/10/04 11:28:04;;;;;;;19.30;7.78;;;;;;;25.71;34.42;101656.44;5108956;28;20043;-59
2022/10/04 11:31:09;;;;;;;16.52;8.05;;;;;;;24.25;36.57;101663.41;5109763;28;20044;-59
2022/10/04 11:36:28;;;;;;;22.45;7.28;;;;;;;24.44;37.99;101655.28;5109566;27;20117;-59
2022/10/04 11:39:22;;;;;;;20.30;6.55;;;;;;;25.10;37.62;101656.41;5106441;28;20497;-58
2022/10/04 11:42:29;;;;;;;19.42;7.95;;;;;;;24.48;37.20;101649.19;5113817;28;20036;-59
2022/10/04 11:45:35;;;;;;;20.98;8.25;;;;;;;23.87;39.12;101648.09;5126779;27;20455;-58
2022/10/04 11:48:25;;;;;;;20.75;7.95;;;;;;;24.18;39.20;101646.38;5128418;27;20040;-58
2022/10/04 11:51:31;;;;;;;20.10;7.93;;;;;;;24.36;38.90;101639.31;5061359;28;20040;-59
2022/10/04 11:57:18;;;;;;;17.55;7.55;;;;;;;22.42;41.28;101649.38;5082347;28;20757;-58
2022/10/04 12:00:13;;;;;;;22.45;7.50;;;;;;;21.83;42.17;101650.22;5091879;28;20426;-58
2022/10/04 12:03:19;;;;;;;19.42;7.22;;;;;;;20.94;44.60;101652.03;5105035;28;20493;-58
2022/10/04 12:06:12;;;;;;;17.45;7.30;;;;;;;21.18;45.68;101652.53;5108989;28;20134;-59
2022/10/04 12:09:07;;;;;;;18.08;7.03;;;;;;;21.34;45.28;101646.78;5104802;28;20040;-59
2022/10/04 12:14:48;;;;;;;12.57;5.80;;;;;;;21.30;44.70;101645.50;5066226;28;20431;-59
2022/10/04 12:17:46;;;;;;;14.55;5.00;;;;;;;21.64;42.84;101641.03;5069768;28;20102;-58
2022/10/04 12:20:53;;;;;;;18.33;6.03;;;;;;;21.07;43.21;101637.78;5062738;28;20041;-58
2022/10/04 12:24:03;;;;;;;15.77;6.00;;;;;;;21.07;43.56;101635.91;5049807;28;20124;-58
2022/10/04 12:26:46;;;;;;;16.15;5.90;;;;;;;21.76;42.91;101627.78;5049260;28;20052;-58
2022/10/04 12:29:44;;;;;;;17.17;6.22;;;;;;;22.05;41.79;101627.34;5064987;28;20041;-58
2022/10/04 12:32:36;;;;;;;15.32;6.18;;;;;;;21.64;42.13;101619.44;5051175;28;20044;-58
2022/10/04 12:35:28;;;;;;;24.45;6.75;;;;;;;21.67;43.27;101616.34;5065622;28;20041;-59
2022/10/04 12:38:28;;;;;;;19.88;6.35;;;;;;;21.84;41.94;101605.94;5062574;28;20468;-59
2022/10/04 12:41:22;;;;;;;16.60;6.45;;;;;;;21.38;43.69;101612.94;5066042;28;20045;-58
2022/10/04 12:44:18;;;;;;;19.95;6.65;;;;;;;21.59;43.95;101608.44;5049228;28;20049;-58
2022/10/04 12:47:25;;;;;;;21.00;6.95;;;;;;;22.07;43.55;101608.22;5045593;28;20048;-58
2022/10/04 12:50:23;;;;;;;27.40;6.15;;;;;;;22.10;44.69;101593.47;5059206;28;20048;-58
2022/10/04 12:53:01;;;;;;;20.90;7.13;;;;;;;22.28;42.76;101592.84;5020400;28;20045;-59
2022/10/04 12:56:03;;;;;;;16.90;5.90;;;;;;;21.65;43.27;101597.66;5067557;28;20433;-58
2022/10/04 12:58:49;;;;;;;17.73;5.88;;;;;;;21.85;42.98;101586.03;5062833;28;20049;-58
2022/10/04 13:01:44;;;;;;;32.58;6.45;;;;;;;22.13;43.31;101583.06;5069085;28;20048;-59
2022/10/04 13:04:38;;;;;;;18.63;6.32;;;;;;;22.38;41.86;101587.84;5055482;28;20029;-58
2022/10/04 13:10:51;;;;;;;20.90;6.70;;;;;;;23.24;40.02;101578.53;5105094;27;20128;-58
2022/10/04 13:13:46;;;;;;;19.63;6.78;;;;;;;23.73;39.75;101578.78;5097562;28;20124;-57
2022/10/04 13:16:52;;;;;;;17.42;5.97;;;;;;;24.10;38.35;101582.44;5097871;28;20405;-59
2022/10/04 13:19:57;;;;;;;17.60;6.22;;;;;;;23.18;38.92;101580.22;5088995;28;20417;-58
2022/10/04 13:25:44;;;;;;;19.95;5.72;;;;;;;23.77;39.46;101571.88;5109568;27;20362;-58
2022/10/04 13:31:14;;;;;;;16.83;5.95;;;;;;;23.60;39.94;101549.94;5095476;27;20879;-59
2022/10/04 13:33:57;;;;;;;15.23;6.18;;;;;;;22.94;40.28;101548.47;5092347;28;20066;-59
2022/10/04 13:36:41;;;;;;;22.65;6.28;;;;;;;22.81;42.08;101546.69;5071398;28;20051;-59
2022/10/04 13:39:47;;;;;;;18.17;5.57;;;;;;;22.43;41.94;101540.22;5080160;28;20062;-58
2022/10/04 13:45:38;;;;;;;23.25;8.90;;;;;;;22.73;42.47;101544.25;5065811;27;20405;-58
2022/10/04 13:48:29;;;;;;;17.90;6.38;;;;;;;22.22;42.34;101540.44;5079291;28;20712;-59
2022/10/04 13:57:02;;;;;;;16.02;6.38;;;;;;;20.61;47.05;101515.22;5082404;28;20139;-59
2022/10/04 13:59:40;;;;;;;15.90;5.68;;;;;;;20.80;48.14;101510.94;5061008;28;20059;-58
2022/10/04 14:02:47;;;;;;;17.95;6.53;;;;;;;20.88;46.27;101513.44;5057079;28;20043;-58
2022/10/04 14:08:49;;;;;;;25.92;6.07;;;;;;;21.07;47.33;101505.59;5097130;27;20404;-58
2022/10/04 14:11:41;;;;;;;22.17;6.32;;;;;;;20.92;46.26;101499.53;5088822;28;20127;-58
2022/10/04 14:14:48;;;;;;;16.58;6.40;;;;;;;20.88;46.52;101499.97;5077086;28;20105;-58
2022/10/04 14:17:41;;;;;;;17.25;6.28;;;;;;;21.17;45.70;101502.50;5096231;28;20098;-58